createdAt,value
2022-12-14T00:02:30.207Z,112.40
2022-12-14T00:05:02.287Z,124.45
2022-12-14T00:07:34.286Z,129.23
2022-12-14T00:10:06.726Z,129.73
2022-12-14T00:12:38.698Z,133.45
2022-12-14T00:15:10.885Z,116.47
2022-12-14T00:17:42.870Z,140.30
2022-12-14T00:20:15.317Z,130.23
2022-12-14T00:22:47.626Z,120.82
2022-12-14T00:25:19.735Z,132.70
2022-12-14T00:27:51.877Z,121.60
2022-12-14T00:30:23.853Z,123.97
2022-12-14T00:32:55.830Z,120.63
2022-12-14T00:35:27.781Z,123.68
2022-12-14T00:37:59.766Z,134.95
2022-12-14T00:40:31.696Z,137.15
2022-12-14T00:43:04.362Z,125.20
2022-12-14T00:45:36.315Z,137.25
2022-12-14T00:48:08.450Z,136.40
2022-12-14T00:50:41.264Z,117.75
2022-12-14T00:53:13.340Z,116.32
2022-12-14T00:55:49.256Z,124.57
2022-12-14T00:58:24.311Z,119.50
2022-12-14T01:01:08.695Z,116.32
2022-12-14T01:03:41.038Z,104.00
2022-12-14T01:06:18.547Z,103.15
2022-12-14T01:08:50.753Z,95.80
2022-12-14T01:11:22.711Z,101.18
2022-12-14T01:13:56.176Z,97.82
2022-12-14T01:16:28.389Z,94.45
2022-12-14T01:19:01.543Z,98.57
2022-12-14T01:21:34.047Z,102.82
2022-12-14T01:24:07.490Z,95.00
2022-12-14T04:54:02.189Z,92.20
2022-12-14T04:56:42.873Z,92.13
2022-12-14T04:59:15.072Z,84.97
2022-12-14T05:01:52.814Z,84.95
2022-12-14T05:04:33.455Z,84.60
2022-12-14T05:07:20.372Z,86.60
2022-12-14T05:10:10.644Z,89.40
2022-12-14T05:15:49.711Z,93.93
2022-12-14T05:18:22.398Z,104.60
2022-12-14T05:20:54.394Z,96.20
2022-12-14T05:23:26.643Z,99.45
2022-12-14T05:25:58.823Z,95.18
2022-12-14T05:28:30.770Z,97.15
2022-12-14T05:31:02.854Z,98.95
2022-12-14T05:33:35.031Z,85.97
2022-12-14T05:36:07.445Z,85.95
2022-12-14T05:38:39.351Z,83.72
2022-12-14T05:41:11.337Z,100.70
2022-12-14T05:43:43.328Z,114.57
2022-12-14T05:46:15.427Z,124.32
2022-12-14T05:48:49.434Z,120.18
2022-12-14T05:51:21.778Z,107.30
2022-12-14T05:53:53.899Z,109.32
2022-12-14T05:56:26.057Z,101.88
2022-12-14T05:58:58.307Z,95.68
2022-12-14T06:01:30.536Z,89.22
2022-12-14T06:04:02.657Z,128.20
2022-12-14T06:06:34.744Z,175.02
2022-12-14T06:09:08.005Z,158.43
2022-12-14T06:11:41.496Z,156.60
2022-12-14T06:14:14.219Z,153.50
2022-12-14T06:16:47.401Z,132.27
2022-12-14T06:19:19.426Z,119.25
2022-12-14T06:21:51.654Z,126.35
2022-12-14T06:24:23.615Z,143.40
2022-12-14T06:26:55.558Z,127.50
2022-12-14T06:29:28.240Z,116.28
2022-12-14T06:32:01.748Z,117.00
2022-12-14T06:34:38.540Z,105.25
2022-12-14T06:37:12.068Z,106.70
2022-12-14T06:39:45.672Z,110.85
2022-12-14T06:42:24.714Z,110.88
2022-12-14T06:44:56.598Z,112.28
2022-12-14T06:47:28.761Z,102.72
2022-12-14T06:50:00.701Z,94.82
2022-12-14T06:52:32.713Z,96.20
2022-12-14T06:55:05.359Z,107.97
2022-12-14T06:57:37.318Z,127.15
2022-12-14T07:00:13.629Z,144.15
2022-12-14T07:02:45.811Z,147.43
2022-12-14T07:05:17.972Z,154.35
2022-12-14T07:07:50.060Z,133.50
2022-12-14T07:10:22.039Z,135.38
2022-12-14T07:12:54.025Z,145.98
2022-12-14T07:15:26.007Z,185.98
2022-12-14T07:17:58.291Z,218.27
2022-12-14T07:20:30.167Z,189.15
2022-12-14T07:23:02.286Z,151.70
2022-12-14T07:25:34.276Z,120.40
2022-12-14T07:28:06.521Z,118.60
2022-12-14T07:30:38.472Z,118.50
2022-12-14T07:33:10.659Z,107.82
2022-12-14T07:35:42.635Z,113.80
2022-12-14T07:38:14.726Z,109.63
2022-12-14T07:40:46.893Z,130.93
2022-12-14T07:43:19.220Z,132.80
2022-12-14T07:45:51.201Z,137.98
2022-12-14T07:48:23.188Z,116.15
2022-12-14T07:50:55.593Z,128.20
2022-12-14T07:53:27.961Z,114.82
2022-12-14T07:56:05.334Z,110.88
2022-12-14T07:58:37.565Z,102.57
2022-12-14T08:01:09.618Z,105.63
2022-12-14T08:03:43.781Z,102.43
2022-12-14T08:06:17.241Z,144.52
2022-12-14T08:08:50.365Z,153.20
2022-12-14T08:11:29.316Z,140.77
2022-12-14T08:14:03.737Z,138.77
2022-12-14T08:16:35.852Z,132.23
2022-12-14T08:19:07.884Z,130.82
2022-12-14T08:21:41.044Z,158.05
2022-12-14T08:24:14.250Z,183.65
2022-12-14T08:26:49.117Z,138.57
2022-12-14T08:29:22.713Z,142.23
2022-12-14T08:31:58.509Z,129.98
2022-12-14T08:34:30.685Z,127.60
2022-12-14T08:37:02.678Z,118.03
2022-12-14T08:39:34.706Z,119.85
2022-12-14T08:42:06.668Z,116.10
2022-12-14T08:44:38.609Z,116.78
2022-12-14T08:47:10.572Z,108.13
2022-12-14T08:49:42.574Z,105.65
2022-12-14T08:52:14.514Z,130.65
2022-12-14T08:54:46.635Z,103.45
2022-12-14T08:57:18.507Z,131.88
2022-12-14T09:00:05.766Z,115.88
2022-12-14T09:02:38.505Z,115.45
2022-12-14T09:05:11.046Z,100.75
2022-12-14T09:07:43.038Z,105.90
2022-12-14T09:10:15.766Z,100.70
2022-12-14T09:12:47.867Z,100.82
2022-12-14T09:15:19.904Z,95.63
2022-12-14T09:17:51.867Z,99.72
2022-12-14T09:20:23.943Z,133.40
2022-12-14T09:22:56.146Z,108.18
2022-12-14T09:25:28.130Z,95.65
2022-12-14T09:28:00.039Z,91.20
2022-12-14T09:30:31.978Z,89.72
2022-12-14T09:33:04.027Z,94.68
2022-12-14T09:35:35.992Z,84.72
2022-12-14T09:38:08.024Z,94.60
2022-12-14T09:40:43.061Z,83.65
2022-12-14T09:43:43.759Z,95.93
2022-12-14T09:46:35.585Z,91.50
2022-12-14T09:49:34.770Z,99.45
2022-12-14T09:52:13.418Z,87.35
2022-12-14T09:54:49.739Z,88.97
2022-12-14T09:57:25.260Z,75.88
2022-12-14T09:59:57.256Z,81.75
2022-12-14T10:02:46.765Z,87.28
2022-12-14T10:05:34.179Z,88.47
2022-12-14T10:08:45.346Z,92.40
2022-12-14T10:11:32.999Z,99.55
2022-12-14T10:14:31.179Z,78.85
2022-12-14T10:17:30.326Z,93.07
2022-12-14T10:20:17.600Z,74.82
2022-12-14T10:22:52.992Z,76.28
2022-12-14T10:25:37.628Z,79.07
2022-12-14T10:28:21.630Z,75.95
2022-12-14T10:30:58.599Z,75.97
2022-12-14T10:33:31.931Z,87.85
2022-12-14T10:36:26.124Z,75.97
2022-12-14T10:39:02.628Z,84.20
2022-12-14T10:41:43.320Z,81.53
2022-12-14T10:45:09.615Z,85.78
2022-12-14T10:47:52.562Z,74.80
2022-12-14T10:50:50.054Z,77.20
2022-12-14T10:53:33.488Z,72.68
2022-12-14T10:56:25.817Z,72.53
2022-12-14T10:59:26.780Z,71.68
2022-12-14T11:02:04.689Z,68.28
2022-12-14T11:04:45.029Z,66.85
2022-12-14T11:07:19.353Z,68.47
2022-12-14T11:09:51.389Z,76.78
2022-12-14T11:12:28.374Z,69.95
2022-12-14T11:15:03.466Z,75.75
2022-12-14T11:17:43.662Z,79.05
2022-12-14T11:20:21.223Z,71.05
2022-12-14T11:22:59.438Z,82.65
2022-12-14T11:25:43.495Z,71.97
2022-12-14T11:28:15.442Z,76.35
2022-12-14T11:31:33.057Z,70.85
2022-12-14T11:34:31.020Z,69.93
2022-12-14T11:37:25.758Z,64.57
2022-12-14T11:40:05.276Z,65.78
2022-12-14T11:42:37.574Z,61.70
2022-12-14T11:45:31.906Z,61.03
2022-12-14T11:48:16.121Z,59.58
2022-12-14T11:50:49.845Z,63.47
2022-12-14T11:53:23.519Z,58.88
2022-12-14T11:55:59.688Z,54.50
2022-12-14T11:58:54.619Z,55.40
2022-12-14T12:01:27.403Z,53.97
2022-12-14T12:04:00.895Z,54.90
2022-12-14T12:06:33.164Z,59.50
2022-12-14T12:09:30.482Z,57.47
2022-12-14T12:12:02.443Z,69.00
2022-12-14T12:14:38.868Z,69.32
2022-12-14T12:17:27.203Z,83.60
2022-12-14T12:19:59.288Z,83.97
2022-12-14T12:22:32.220Z,77.28
2022-12-14T12:28:12.669Z,64.20
2022-12-14T12:30:51.318Z,59.58
2022-12-14T12:33:30.430Z,53.15
2022-12-14T12:36:05.924Z,56.67
2022-12-14T12:38:49.770Z,57.35
2022-12-14T12:41:26.229Z,56.35
2022-12-14T12:44:49.756Z,51.30
2022-12-14T12:47:41.418Z,58.45
2022-12-14T12:50:21.932Z,59.35
2022-12-14T12:53:02.701Z,57.72
2022-12-14T12:55:42.389Z,61.67
2022-12-14T12:58:27.936Z,56.92
2022-12-14T13:01:05.043Z,55.08
2022-12-14T13:03:46.141Z,55.20
2022-12-14T13:06:24.136Z,57.15
2022-12-14T13:09:02.393Z,54.30
2022-12-14T13:11:39.638Z,56.90
2022-12-14T13:14:29.335Z,61.90
2022-12-14T13:17:06.106Z,60.77
2022-12-14T13:19:54.761Z,58.15
2022-12-14T13:22:30.210Z,64.22
2022-12-14T13:25:57.757Z,65.68
2022-12-14T13:28:47.793Z,63.80
2022-12-14T13:31:29.024Z,68.07
2022-12-14T13:34:23.893Z,65.93
2022-12-14T13:37:23.323Z,62.28
2022-12-14T13:40:13.981Z,64.25
2022-12-14T13:45:32.808Z,67.18
2022-12-14T13:48:09.478Z,66.70
2022-12-14T13:50:56.081Z,72.55
2022-12-14T13:53:35.381Z,69.63
2022-12-14T13:56:08.934Z,69.47
2022-12-14T13:58:43.525Z,75.97
2022-12-14T14:01:54.811Z,71.40
2022-12-14T14:04:31.804Z,75.10
2022-12-14T14:07:22.697Z,78.70
2022-12-14T14:10:05.033Z,81.45
2022-12-14T14:12:39.693Z,77.50
2022-12-14T14:15:32.935Z,74.68
2022-12-14T14:18:16.079Z,72.90
2022-12-14T14:21:14.213Z,69.93
2022-12-14T14:23:59.744Z,72.22
2022-12-14T14:26:34.461Z,74.20
2022-12-14T14:29:23.846Z,73.70
2022-12-14T14:31:57.406Z,74.90
2022-12-14T14:34:45.137Z,82.25
2022-12-14T14:37:20.203Z,83.00
2022-12-14T14:40:18.756Z,84.57
2022-12-14T14:43:06.773Z,73.97
2022-12-14T14:45:50.706Z,75.60
2022-12-14T14:48:34.761Z,77.38
2022-12-14T14:51:21.303Z,79.35
2022-12-14T14:55:10.698Z,84.88
2022-12-14T14:57:38.784Z,96.47
2022-12-14T15:00:11.590Z,90.70
2022-12-14T15:02:44.703Z,89.85
2022-12-14T15:08:29.767Z,90.65
2022-12-14T15:11:12.342Z,91.03
2022-12-14T15:13:51.998Z,94.75
2022-12-14T15:16:29.776Z,90.63
2022-12-14T15:19:26.814Z,89.75
2022-12-14T15:22:14.448Z,99.32
2022-12-14T15:24:49.959Z,111.20
2022-12-14T15:27:32.477Z,105.00
2022-12-14T15:30:13.598Z,90.40
2022-12-14T15:32:59.602Z,90.72
2022-12-14T15:35:38.469Z,83.30
2022-12-14T15:38:20.897Z,84.53
2022-12-14T15:41:13.335Z,87.07
2022-12-14T15:43:47.109Z,78.95
2022-12-14T15:46:32.149Z,80.43
2022-12-14T15:49:09.187Z,86.82
2022-12-14T15:51:43.941Z,81.45
2022-12-14T15:54:21.390Z,75.28
2022-12-14T15:57:00.813Z,77.93
2022-12-14T15:59:36.181Z,82.15
2022-12-14T16:02:38.430Z,82.15
2022-12-14T16:05:17.263Z,83.95
2022-12-14T16:07:54.552Z,78.60
2022-12-14T16:10:35.064Z,78.72
2022-12-14T16:15:47.712Z,80.22
2022-12-14T16:18:22.116Z,77.13
2022-12-14T16:21:01.021Z,73.68
2022-12-14T16:23:39.244Z,78.30
2022-12-14T16:26:15.440Z,79.88
2022-12-14T16:28:48.040Z,78.20
2022-12-14T16:31:22.709Z,85.07
2022-12-14T16:34:10.037Z,89.68
2022-12-14T16:36:48.180Z,80.82
2022-12-14T16:39:40.126Z,77.90
2022-12-14T16:42:25.514Z,75.70
2022-12-14T16:44:57.637Z,90.82
2022-12-14T16:47:35.312Z,85.57
2022-12-14T16:53:25.531Z,79.05
2022-12-14T16:56:15.571Z,78.65
2022-12-14T16:58:59.354Z,84.15
2022-12-14T17:01:45.950Z,96.63
2022-12-14T17:04:20.164Z,87.45
2022-12-14T17:06:54.301Z,109.00
2022-12-14T17:09:29.298Z,98.43
2022-12-14T17:12:10.213Z,99.30
2022-12-14T17:14:49.061Z,91.40
2022-12-14T17:17:33.748Z,91.78
2022-12-14T17:20:13.569Z,104.28
2022-12-14T17:22:49.681Z,92.50
2022-12-14T17:25:21.946Z,97.00
2022-12-14T17:27:54.634Z,85.07
2022-12-14T17:30:26.839Z,102.60
2022-12-14T17:32:59.023Z,100.43
2022-12-14T17:35:32.590Z,94.95
2022-12-14T17:38:13.453Z,90.30
2022-12-14T17:40:47.094Z,83.47
2022-12-14T17:43:22.495Z,112.68
2022-12-14T17:45:54.878Z,101.43
2022-12-14T17:48:28.623Z,141.45
2022-12-14T17:51:01.639Z,121.80
2022-12-14T17:53:34.971Z,105.25
2022-12-14T17:56:07.114Z,102.07
2022-12-14T17:58:39.239Z,90.13
2022-12-14T18:01:16.272Z,105.57
2022-12-14T18:03:48.900Z,113.85
2022-12-14T18:06:20.879Z,103.18
2022-12-14T18:08:52.870Z,95.05
2022-12-14T18:11:27.334Z,84.40
2022-12-14T18:13:59.675Z,80.32
2022-12-14T18:16:31.739Z,74.63
2022-12-14T18:19:03.882Z,74.03
2022-12-14T18:21:35.886Z,77.10
2022-12-14T18:24:12.982Z,80.18
2022-12-14T18:26:46.292Z,80.95
2022-12-14T18:29:19.975Z,79.03
2022-12-14T18:31:52.527Z,82.07
2022-12-14T18:34:24.779Z,79.35
2022-12-14T18:36:56.782Z,77.07
2022-12-14T18:39:28.784Z,92.53
2022-12-14T18:42:00.652Z,90.88
2022-12-14T18:44:32.642Z,88.28
2022-12-14T18:47:20.753Z,89.07
2022-12-14T18:49:56.693Z,79.25
2022-12-14T18:52:28.881Z,79.82
2022-12-14T18:55:01.021Z,78.30
2022-12-14T18:57:33.017Z,78.70
2022-12-14T19:00:05.480Z,70.28
2022-12-14T19:02:37.612Z,76.85
2022-12-14T19:05:10.740Z,66.88
2022-12-14T19:07:43.738Z,70.03
2022-12-14T19:10:21.773Z,76.72
2022-12-14T19:12:54.218Z,69.38
2022-12-14T19:15:32.784Z,78.32
2022-12-14T19:18:04.855Z,81.32
2022-12-14T19:20:36.972Z,71.35
2022-12-14T19:23:15.722Z,75.32
2022-12-14T19:25:48.086Z,71.82
2022-12-14T19:28:32.056Z,74.03
2022-12-14T19:31:05.579Z,77.03
2022-12-14T19:33:38.086Z,75.95
2022-12-14T19:36:10.592Z,80.07
2022-12-14T19:38:42.603Z,81.80
2022-12-14T19:41:17.950Z,82.43
2022-12-14T19:43:50.198Z,78.05
2022-12-14T19:46:24.156Z,76.15
2022-12-14T19:48:57.770Z,75.65
2022-12-14T19:51:30.813Z,82.72
2022-12-14T19:54:04.235Z,78.72
2022-12-14T19:56:36.356Z,86.43
2022-12-14T19:59:08.357Z,85.07
2022-12-14T20:01:44.816Z,101.03
2022-12-14T20:04:19.980Z,101.35
2022-12-14T20:06:51.985Z,104.80
2022-12-14T20:09:24.167Z,99.45
2022-12-14T20:11:56.274Z,97.25
2022-12-14T20:14:28.440Z,90.68
2022-12-14T20:17:00.441Z,94.05
2022-12-14T20:19:32.446Z,92.97
2022-12-14T20:22:05.391Z,90.68
2022-12-14T20:24:38.572Z,95.95
2022-12-14T20:27:11.034Z,89.07
2022-12-14T20:29:43.504Z,100.20
2022-12-14T20:32:15.454Z,102.40
2022-12-14T20:34:47.415Z,112.63
2022-12-14T20:37:19.442Z,105.45
2022-12-14T20:39:51.398Z,109.95
2022-12-14T20:42:25.971Z,102.88
2022-12-14T20:45:01.324Z,106.28
2022-12-14T20:47:37.386Z,97.68
2022-12-14T20:50:12.250Z,99.15
2022-12-14T20:52:44.483Z,104.15
2022-12-14T20:55:21.410Z,89.13
2022-12-14T20:57:54.630Z,91.78
2022-12-14T21:00:26.997Z,94.22
2022-12-14T21:02:59.127Z,97.50
2022-12-14T21:05:31.125Z,107.78
2022-12-14T21:08:03.102Z,91.80
2022-12-14T21:10:35.830Z,107.78
2022-12-14T21:13:08.156Z,100.53
2022-12-14T21:15:40.186Z,102.05
2022-12-14T21:18:12.172Z,101.90
2022-12-14T21:20:44.757Z,99.72
2022-12-14T21:23:21.285Z,93.90
2022-12-14T21:25:53.291Z,99.85
2022-12-14T21:28:30.393Z,98.28
2022-12-14T21:31:05.748Z,98.82
2022-12-14T21:33:37.692Z,88.43
2022-12-14T21:36:10.426Z,89.00
2022-12-14T21:38:42.374Z,87.70
2022-12-14T21:41:32.682Z,97.55
2022-12-14T21:44:04.948Z,95.38
2022-12-14T21:46:37.499Z,98.70
2022-12-14T21:49:10.053Z,92.55
2022-12-14T21:51:42.209Z,89.60
2022-12-14T21:54:15.793Z,99.20
2022-12-14T21:57:06.552Z,85.05
2022-12-14T21:59:46.706Z,90.10
2022-12-14T22:02:25.004Z,91.47
2022-12-14T22:04:57.280Z,92.72
2022-12-14T22:07:31.749Z,91.57
2022-12-14T22:10:04.328Z,82.88
2022-12-14T22:12:36.289Z,88.78
2022-12-14T22:15:08.927Z,98.22
2022-12-14T22:17:40.894Z,109.15
2022-12-14T22:20:13.626Z,93.50
2022-12-14T22:22:45.627Z,82.97
2022-12-14T22:25:17.597Z,79.70
2022-12-14T22:27:49.636Z,74.55
2022-12-14T22:30:24.004Z,77.45
2022-12-14T22:32:59.125Z,85.22
2022-12-14T22:35:31.148Z,79.60
2022-12-14T22:38:03.127Z,82.38
2022-12-14T22:40:35.392Z,75.40
2022-12-14T22:43:07.334Z,74.75
2022-12-14T22:45:39.328Z,79.10
2022-12-14T22:48:11.273Z,89.30
2022-12-14T22:50:43.831Z,83.20
2022-12-14T22:53:15.841Z,83.20
2022-12-14T22:55:49.724Z,86.15
2022-12-14T22:58:23.050Z,74.97
2022-12-14T23:00:58.216Z,79.80
2022-12-14T23:03:30.783Z,80.47
2022-12-14T23:06:03.216Z,74.70
2022-12-14T23:08:35.221Z,77.50
2022-12-14T23:11:25.718Z,69.13
2022-12-14T23:14:16.524Z,77.57
2022-12-14T23:17:07.026Z,76.38
2022-12-14T23:22:56.002Z,73.53
2022-12-14T23:25:46.764Z,74.65
2022-12-14T23:28:37.430Z,84.13
2022-12-14T23:31:28.231Z,88.32
2022-12-14T23:34:19.026Z,88.22
2022-12-14T23:37:10.504Z,90.38
2022-12-14T23:40:03.459Z,86.30
2022-12-14T23:42:54.031Z,93.25
2022-12-14T23:48:35.105Z,86.53
2022-12-14T23:54:15.985Z,76.88
2022-12-14T23:59:56.721Z,57.05
